Time;durP1;ratioP1;P1;durP2;ratioP2;P2;SDS_P1;SDS_P2;PMS_P1;PMS_P2;Temp;Humidity;BMP_temperature;BMP_pressure;BME280_temperature;BME280_humidity;BME280_pressure;Samples;Min_cycle;Max_cycle;Signal;HPM_P1;HPM_P2
2023/12/13 00:00:23;;;;;;;13.15;6.57;;;;;;;-146.58;100.00;69501.63;5069482;28;20059;-63
2023/12/13 00:02:48;;;;;;;7.40;6.70;;;;;;;-146.58;100.00;69501.63;5071894;28;20498;-64
2023/12/13 00:05:13;;;;;;;12.25;7.22;;;;;;;-146.58;100.00;69501.63;5069563;28;20040;-63
2023/12/13 00:07:39;;;;;;;10.77;8.32;;;;;;;-146.58;100.00;69501.63;5071098;28;20028;-63
2023/12/13 00:10:05;;;;;;;11.65;8.38;;;;;;;-146.58;100.00;69501.63;5050080;28;20079;-63
2023/12/13 00:12:30;;;;;;;15.32;7.28;;;;;;;-146.58;100.00;69501.63;5050765;28;20063;-63
2023/12/13 00:14:55;;;;;;;12.27;7.32;;;;;;;-146.58;100.00;69501.63;5049952;28;20611;-63
2023/12/13 00:17:21;;;;;;;15.93;11.65;;;;;;;-146.58;100.00;69501.63;5051099;28;20100;-63
2023/12/13 00:19:47;;;;;;;10.38;8.50;;;;;;;-146.58;100.00;69501.63;5065953;28;20044;-63
2023/12/13 00:22:12;;;;;;;11.75;6.82;;;;;;;-146.58;100.00;69501.63;5071122;28;20482;-63
2023/12/13 00:24:38;;;;;;;16.42;8.20;;;;;;;-146.58;100.00;69501.63;5069566;28;20045;-63
2023/12/13 00:27:03;;;;;;;14.50;8.68;;;;;;;-146.58;100.00;69501.63;5059457;28;20032;-64
2023/12/13 00:29:29;;;;;;;16.05;7.63;;;;;;;-146.58;100.00;69501.63;5063234;28;20048;-64
2023/12/13 00:31:54;;;;;;;11.65;9.60;;;;;;;-146.58;100.00;69501.63;5070441;28;20024;-64
2023/12/13 00:34:20;;;;;;;12.48;8.20;;;;;;;-146.58;100.00;69501.63;5068990;28;20040;-63
2023/12/13 00:36:45;;;;;;;11.35;7.97;;;;;;;-146.58;100.00;69501.63;5070738;28;20049;-64
2023/12/13 00:39:11;;;;;;;10.88;8.55;;;;;;;-146.58;100.00;69501.63;5058106;28;20033;-62
2023/12/13 00:41:37;;;;;;;15.52;8.60;;;;;;;-146.58;100.00;69501.63;5050571;28;20365;-63
2023/12/13 00:44:03;;;;;;;14.90;9.32;;;;;;;-146.58;100.00;69501.63;5049224;28;20032;-63
2023/12/13 00:46:28;;;;;;;17.42;10.02;;;;;;;-146.58;100.00;69501.63;5050861;28;20029;-63
2023/12/13 00:48:54;;;;;;;12.38;10.77;;;;;;;-146.58;100.00;69501.63;5048879;28;20029;-62
2023/12/13 00:51:21;;;;;;;15.68;10.43;;;;;;;-146.58;100.00;69501.63;5050369;28;20025;-63
2023/12/13 00:53:46;;;;;;;19.55;11.88;;;;;;;-146.58;100.00;69501.63;5050761;28;20429;-63
2023/12/13 00:56:13;;;;;;;14.60;10.88;;;;;;;-146.58;100.00;69501.63;5069104;28;20048;-63
2023/12/13 00:58:38;;;;;;;15.82;12.20;;;;;;;-146.58;100.00;69501.63;5059923;28;20029;-63
2023/12/13 01:01:05;;;;;;;18.90;12.23;;;;;;;-146.58;100.00;69501.63;5049342;28;20094;-63
2023/12/13 01:03:30;;;;;;;27.73;13.30;;;;;;;-146.58;100.00;69501.63;5050200;28;20066;-63
2023/12/13 01:05:55;;;;;;;19.23;12.43;;;;;;;-146.58;100.00;69501.63;5049260;28;20048;-63
2023/12/13 01:08:21;;;;;;;20.00;13.02;;;;;;;-146.58;100.00;69501.63;5053664;28;20020;-61
2023/12/13 01:10:46;;;;;;;17.33;13.52;;;;;;;-146.58;100.00;69501.63;5069041;28;20044;-62
2023/12/13 01:13:11;;;;;;;23.63;15.43;;;;;;;-146.58;100.00;69501.63;5059528;28;20032;-62
2023/12/13 01:15:37;;;;;;;22.20;14.70;;;;;;;-146.58;100.00;69501.63;5048862;28;20036;-62
2023/12/13 01:18:03;;;;;;;17.60;13.25;;;;;;;-146.58;100.00;69501.63;5059091;28;20028;-63
2023/12/13 01:20:29;;;;;;;16.10;12.55;;;;;;;-146.58;100.00;69501.63;5047030;28;20568;-62
2023/12/13 01:22:54;;;;;;;18.73;13.95;;;;;;;-146.58;100.00;69501.63;5060024;28;20115;-62
2023/12/13 01:25:19;;;;;;;25.02;16.25;;;;;;;-146.58;100.00;69501.63;5068535;28;20056;-63
2023/12/13 01:27:45;;;;;;;19.65;15.27;;;;;;;-146.58;100.00;69501.63;5069967;28;20020;-63
2023/12/13 01:30:10;;;;;;;23.40;14.02;;;;;;;-146.58;100.00;69501.63;5050282;28;20500;-62
2023/12/13 01:32:35;;;;;;;18.02;14.25;;;;;;;-146.58;100.00;69501.63;5050046;28;20044;-63
2023/12/13 01:35:01;;;;;;;18.85;15.07;;;;;;;-146.58;100.00;69501.63;5048326;28;20447;-63
2023/12/13 01:37:27;;;;;;;36.13;16.30;;;;;;;-146.58;100.00;69501.63;5049981;28;20052;-64
2023/12/13 01:39:56;;;;;;;24.30;15.30;;;;;;;-146.58;100.00;69501.63;5064401;28;20048;-63
2023/12/13 01:42:22;;;;;;;26.42;16.23;;;;;;;-146.58;100.00;69501.63;5049990;28;20072;-63
2023/12/13 01:44:47;;;;;;;20.23;16.08;;;;;;;-146.58;100.00;69501.63;5052911;28;20493;-63
2023/12/13 01:47:13;;;;;;;20.00;13.77;;;;;;;-146.58;100.00;69501.63;5054329;28;20112;-63
2023/12/13 01:49:39;;;;;;;25.10;17.63;;;;;;;-146.58;100.00;69501.63;5065558;28;20068;-62
2023/12/13 01:52:06;;;;;;;24.85;16.27;;;;;;;-146.58;100.00;69501.63;5073777;28;20056;-64
2023/12/13 01:54:32;;;;;;;22.13;17.00;;;;;;;-146.58;100.00;69501.63;5072506;28;20040;-64
2023/12/13 01:56:58;;;;;;;25.38;18.33;;;;;;;-146.58;100.00;69501.63;5073773;28;20029;-64
2023/12/13 01:59:25;;;;;;;22.00;16.40;;;;;;;-146.58;100.00;69501.63;5061081;28;20041;-64
2023/12/13 02:01:52;;;;;;;29.55;18.02;;;;;;;-146.58;100.00;69501.63;5054040;28;20031;-64
2023/12/13 02:04:20;;;;;;;29.95;19.13;;;;;;;-146.58;100.00;69501.63;5052131;28;20061;-64
2023/12/13 02:06:46;;;;;;;;;;;;;;;-146.58;100.00;69501.63;5056996;28;20057;-64
2023/12/13 02:09:11;;;;;;;23.40;16.38;;;;;;;-146.58;100.00;69501.63;5070788;28;20426;-63
2023/12/13 02:11:37;;;;;;;27.83;19.05;;;;;;;-146.58;100.00;69501.63;5073010;28;20032;-63
2023/12/13 02:14:03;;;;;;;26.00;16.13;;;;;;;-146.58;100.00;69501.63;5072496;28;20017;-63
2023/12/13 02:16:28;;;;;;;26.05;16.65;;;;;;;-146.58;100.00;69501.63;5069947;28;20150;-63
2023/12/13 02:18:53;;;;;;;26.83;17.20;;;;;;;-146.58;100.00;69501.63;5054971;28;20040;-62
2023/12/13 02:21:19;;;;;;;22.73;15.00;;;;;;;-146.58;100.00;69501.63;5053135;28;20013;-63
2023/12/13 02:23:46;;;;;;;19.05;14.02;;;;;;;-146.58;100.00;69501.63;5053621;28;20365;-63
2023/12/13 02:26:12;;;;;;;22.92;14.95;;;;;;;-146.58;100.00;69501.63;5051653;28;20171;-63
2023/12/13 02:28:38;;;;;;;20.30;14.13;;;;;;;-146.58;100.00;69501.63;5053183;28;20426;-63
2023/12/13 02:31:03;;;;;;;21.73;13.93;;;;;;;-146.58;100.00;69501.63;5051686;28;20041;-63
2023/12/13 02:33:30;;;;;;;24.05;14.82;;;;;;;-146.58;100.00;69501.63;5052699;28;20108;-63
2023/12/13 02:35:57;;;;;;;20.65;11.43;;;;;;;-146.58;100.00;69501.63;5051588;28;20076;-61
2023/12/13 02:38:22;;;;;;;25.80;12.75;;;;;;;-146.58;100.00;69501.63;5054153;28;20020;-63
2023/12/13 02:40:48;;;;;;;19.50;12.30;;;;;;;-146.58;100.00;69501.63;5071366;28;20403;-63
2023/12/13 02:43:13;;;;;;;17.55;12.85;;;;;;;-146.58;100.00;69501.63;5072906;28;20020;-63
2023/12/13 02:45:39;;;;;;;13.32;10.05;;;;;;;-146.58;100.00;69501.63;5058796;28;20107;-63
2023/12/13 02:48:05;;;;;;;22.27;10.20;;;;;;;-146.58;100.00;69501.63;5052887;28;20032;-63
2023/12/13 02:50:30;;;;;;;11.90;10.23;;;;;;;-146.58;100.00;69501.63;5069608;28;20147;-67
2023/12/13 02:52:56;;;;;;;12.32;8.32;;;;;;;-146.58;100.00;69501.63;5070614;28;20024;-64
2023/12/13 02:55:21;;;;;;;13.50;8.93;;;;;;;-146.58;100.00;69501.63;5070540;28;20043;-64
2023/12/13 02:57:47;;;;;;;14.90;9.10;;;;;;;-146.58;100.00;69501.63;5072655;28;20020;-64
2023/12/13 03:00:12;;;;;;;8.68;7.60;;;;;;;-146.58;100.00;69501.63;5054728;28;20056;-63
2023/12/13 03:02:39;;;;;;;8.60;7.53;;;;;;;-146.58;100.00;69501.63;5052051;28;20024;-63
2023/12/13 03:05:05;;;;;;;19.35;9.10;;;;;;;-146.58;100.00;69501.63;5051246;28;20420;-63
2023/12/13 03:07:31;;;;;;;18.45;8.13;;;;;;;-146.58;100.00;69501.63;5052434;28;20117;-64
2023/12/13 03:09:56;;;;;;;12.25;8.68;;;;;;;-146.58;100.00;69501.63;5064482;28;20095;-63
2023/12/13 03:12:21;;;;;;;8.23;7.43;;;;;;;-146.58;100.00;69501.63;5070457;28;20456;-63
2023/12/13 03:14:47;;;;;;;10.35;6.53;;;;;;;-146.58;100.00;69501.63;5051243;28;20120;-63
2023/12/13 03:17:12;;;;;;;18.25;8.13;;;;;;;-146.58;100.00;69501.63;5052408;28;20024;-63
2023/12/13 03:19:38;;;;;;;9.57;7.68;;;;;;;-146.58;100.00;69501.63;5061157;28;20048;-63
2023/12/13 03:22:04;;;;;;;11.73;6.95;;;;;;;-146.58;100.00;69501.63;5072346;28;20020;-63
2023/12/13 03:24:29;;;;;;;17.85;9.60;;;;;;;-146.58;100.00;69501.63;5066478;28;20040;-63
2023/12/13 03:26:54;;;;;;;10.88;6.43;;;;;;;-146.58;100.00;69501.63;5052216;28;20021;-63
2023/12/13 03:29:20;;;;;;;11.55;6.45;;;;;;;-146.58;100.00;69501.63;5050849;28;20621;-63
2023/12/13 03:31:45;;;;;;;8.77;7.38;;;;;;;-146.58;100.00;69501.63;5050445;28;20155;-63
2023/12/13 03:34:11;;;;;;;10.50;7.18;;;;;;;-146.58;100.00;69501.63;5050539;28;20035;-63
2023/12/13 03:36:36;;;;;;;16.15;6.35;;;;;;;-146.58;100.00;69501.63;5051964;28;20487;-63
2023/12/13 03:39:02;;;;;;;10.20;5.85;;;;;;;-146.58;100.00;69501.63;5055467;28;20052;-62
2023/12/13 03:41:27;;;;;;;11.90;7.22;;;;;;;-146.58;100.00;69501.63;5071853;28;20024;-63
2023/12/13 03:43:52;;;;;;;9.75;7.15;;;;;;;-146.58;100.00;69501.63;5072025;28;20399;-63
2023/12/13 03:46:18;;;;;;;9.82;6.53;;;;;;;-146.58;100.00;69501.63;5070001;28;20629;-63
2023/12/13 03:48:43;;;;;;;8.27;5.63;;;;;;;-146.58;100.00;69501.63;5068860;28;20024;-63
2023/12/13 03:51:08;;;;;;;12.27;5.95;;;;;;;-146.58;100.00;69501.63;5050274;28;20041;-63
2023/12/13 03:53:34;;;;;;;18.02;7.72;;;;;;;-146.58;100.00;69501.63;5051493;28;20029;-63
2023/12/13 03:56:00;;;;;;;11.95;7.15;;;;;;;-146.58;100.00;69501.63;5049929;28;20041;-63
2023/12/13 03:58:25;;;;;;;13.48;6.72;;;;;;;7.73;100.00;146433.78;5051386;28;20024;-63
2023/12/13 04:00:51;;;;;;;12.43;6.10;;;;;;;7.13;100.00;134406.47;5063313;28;20045;-63
2023/12/13 04:03:16;;;;;;;9.95;6.72;;;;;;;7.17;100.00;132668.75;5050908;28;20471;-63
2023/12/13 04:05:42;;;;;;;9.02;8.13;;;;;;;7.21;100.00;130583.69;5049986;28;20044;-63
2023/12/13 04:08:08;;;;;;;12.25;5.95;;;;;;;7.30;100.00;129206.50;5063882;28;20506;-63
2023/12/13 04:10:33;;;;;;;15.82;6.88;;;;;;;7.32;100.00;128860.91;5045685;28;20045;-63
2023/12/13 04:12:59;;;;;;;14.75;6.10;;;;;;;7.34;100.00;129563.88;5031509;28;20048;-62
2023/12/13 04:15:24;;;;;;;12.95;6.40;;;;;;;7.38;100.00;129571.31;5030190;28;20187;-61
2023/12/13 04:17:50;;;;;;;10.57;7.25;;;;;;;7.40;100.00;130623.47;5029671;28;20025;-61
2023/12/13 04:20:16;;;;;;;9.93;7.00;;;;;;;7.37;100.00;131664.03;5033331;28;20049;-61
2023/12/13 04:22:41;;;;;;;11.50;6.43;;;;;;;7.36;100.00;132009.84;5031279;28;20040;-61
2023/12/13 04:25:07;;;;;;;11.10;6.28;;;;;;;7.39;100.00;132714.63;5029187;28;20045;-62
2023/12/13 04:27:32;;;;;;;10.60;5.68;;;;;;;7.40;100.00;133065.97;5030907;28;20064;-61
2023/12/13 04:29:58;;;;;;;13.88;6.40;;;;;;;7.44;100.00;133425.06;5041270;28;20056;-61
2023/12/13 04:32:23;;;;;;;11.20;7.40;;;;;;;7.44;100.00;134123.63;5050400;28;20025;-61
2023/12/13 04:34:48;;;;;;;9.70;6.28;;;;;;;7.41;100.00;135513.25;5035365;28;20071;-61
2023/12/13 04:37:14;;;;;;;8.63;7.07;;;;;;;7.38;100.00;135857.03;5046037;28;20037;-61
2023/12/13 04:39:39;;;;;;;12.52;7.43;;;;;;;7.45;100.00;136570.56;5048460;28;20492;-62
2023/12/13 04:42:05;;;;;;;12.48;6.90;;;;;;;7.44;100.00;137267.38;5050922;28;20358;-61
2023/12/13 04:44:30;;;;;;;13.48;7.05;;;;;;;7.43;100.00;137265.13;5049241;28;20040;-61
2023/12/13 04:46:57;;;;;;;11.52;8.35;;;;;;;7.46;100.00;136572.81;5050258;28;20075;-62
2023/12/13 04:49:22;;;;;;;15.75;9.20;;;;;;;7.46;100.00;135874.94;5049236;28;20037;-61
2023/12/13 04:51:48;;;;;;;17.02;8.93;;;;;;;7.45;100.00;135523.25;5050590;28;20027;-62
2023/12/13 04:54:14;;;;;;;21.40;10.68;;;;;;;7.50;100.00;134833.38;5049151;28;20049;-62
2023/12/13 04:56:39;;;;;;;17.70;9.57;;;;;;;7.50;100.00;134485.09;5050683;28;20376;-62
2023/12/13 04:59:05;;;;;;;10.95;9.82;;;;;;;7.52;100.00;134140.16;5048976;28;20024;-61
2023/12/13 05:01:30;;;;;;;14.15;10.25;;;;;;;7.46;100.00;134476.25;5050407;28;20020;-63
2023/12/13 05:03:56;;;;;;;11.00;9.35;;;;;;;7.46;100.00;134476.25;5049465;28;20396;-60
2023/12/13 05:06:21;;;;;;;10.70;9.18;;;;;;;7.53;100.00;133094.47;5050291;28;20379;-62
2023/12/13 05:08:46;;;;;;;11.55;9.75;;;;;;;7.51;100.00;132391.63;5050230;28;20028;-62
2023/12/13 05:11:12;;;;;;;11.75;9.60;;;;;;;7.53;100.00;132396.00;5049093;28;20535;-62
2023/12/13 05:13:37;;;;;;;11.25;9.43;;;;;;;7.51;100.00;132390.56;5050355;28;20047;-62
2023/12/13 05:16:03;;;;;;;14.18;10.05;;;;;;;7.48;100.00;132385.13;5049001;28;20040;-62
2023/12/13 05:18:29;;;;;;;13.10;10.20;;;;;;;7.53;100.00;130998.31;5054194;28;20032;-62
2023/12/13 05:20:54;;;;;;;13.77;9.55;;;;;;;7.51;100.00;130646.03;5053175;28;20045;-62
2023/12/13 05:23:19;;;;;;;13.05;10.85;;;;;;;7.53;100.00;129952.28;5054076;28;20021;-62
2023/12/13 05:25:45;;;;;;;15.98;10.35;;;;;;;7.54;100.00;129256.50;5053355;28;20037;-62
2023/12/13 05:28:10;;;;;;;21.95;11.73;;;;;;;7.49;100.00;128895.88;5054174;28;20159;-62
2023/12/13 05:30:36;;;;;;;18.20;13.55;;;;;;;7.54;100.00;128209.78;5052429;28;20045;-62
2023/12/13 05:33:01;;;;;;;16.85;10.57;;;;;;;7.52;100.00;127855.69;5054547;28;20017;-62
2023/12/13 05:35:26;;;;;;;10.82;9.70;;;;;;;7.54;100.00;126814.63;5052765;28;20033;-63
2023/12/13 05:37:52;;;;;;;10.80;9.70;;;;;;;7.56;100.00;126120.28;5053793;28;20057;-63
2023/12/13 05:40:17;;;;;;;18.27;11.52;;;;;;;7.58;100.00;126124.44;5052612;28;20068;-62
2023/12/13 05:42:43;;;;;;;13.95;10.60;;;;;;;7.54;100.00;126464.84;5054065;28;20527;-61
2023/12/13 05:45:09;;;;;;;17.73;10.82;;;;;;;7.52;100.00;126809.41;5052533;28;20508;-61
2023/12/13 05:47:34;;;;;;;18.42;11.20;;;;;;;7.47;100.00;127148.72;5053804;28;20033;-61
2023/12/13 05:49:59;;;;;;;22.50;13.40;;;;;;;7.44;100.00;126793.75;5052811;28;20036;-61
2023/12/13 05:52:25;;;;;;;16.08;13.63;;;;;;;7.47;100.00;126451.34;5053394;28;20052;-61
2023/12/13 05:54:50;;;;;;;20.80;12.15;;;;;;;7.44;100.00;126097.50;5052801;28;20051;-61
2023/12/13 05:57:16;;;;;;;18.48;13.20;;;;;;;7.42;100.00;125743.72;5053702;28;20029;-61
2023/12/13 05:59:42;;;;;;;21.33;13.35;;;;;;;7.45;100.00;124704.28;5052279;28;20097;-61
2023/12/13 06:02:08;;;;;;;19.92;13.18;;;;;;;7.37;100.00;124339.44;5053938;28;20384;-61
2023/12/13 06:04:33;;;;;;;19.45;13.68;;;;;;;7.40;100.00;123998.16;5051923;28;20032;-61
2023/12/13 06:06:59;;;;;;;20.98;14.20;;;;;;;7.39;100.00;123647.72;5053655;28;20024;-61
2023/12/13 06:09:24;;;;;;;18.75;14.63;;;;;;;7.38;100.00;123296.31;5052143;28;20492;-61
2023/12/13 06:11:49;;;;;;;16.70;13.60;;;;;;;7.38;100.00;122947.97;5053891;28;20051;-61
2023/12/13 06:14:15;;;;;;;17.50;13.27;;;;;;;7.39;100.00;122253.44;5051771;28;20041;-62
2023/12/13 06:16:40;;;;;;;19.48;14.57;;;;;;;7.38;100.00;121903.16;5053528;28;20036;-61
2023/12/13 06:19:06;;;;;;;16.48;13.88;;;;;;;7.26;100.00;120835.81;5052104;28;20037;-61
2023/12/13 06:21:33;;;;;;;24.52;15.60;;;;;;;7.38;100.00;120162.41;5053497;28;20037;-61
2023/12/13 06:23:59;;;;;;;19.27;13.75;;;;;;;7.37;100.00;120160.44;5051771;28;20025;-61
2023/12/13 06:26:24;;;;;;;20.08;13.77;;;;;;;7.38;100.00;119814.34;5046150;28;20028;-61
2023/12/13 06:28:49;;;;;;;22.58;15.27;;;;;;;7.36;100.00;119463.38;5014324;28;20032;-61
2023/12/13 06:31:15;;;;;;;20.42;15.85;;;;;;;7.35;100.00;118764.47;5050453;28;20520;-61
2023/12/13 06:33:40;;;;;;;28.17;15.80;;;;;;;7.36;100.00;117722.72;5053611;28;20468;-61
2023/12/13 06:36:06;;;;;;;22.90;15.35;;;;;;;7.35;100.00;117026.09;5051680;28;20045;-61
2023/12/13 06:38:31;;;;;;;24.67;16.50;;;;;;;7.31;100.00;116322.91;5052640;28;20053;-61
2023/12/13 06:40:57;;;;;;;21.85;14.50;;;;;;;7.35;100.00;114938.88;5051760;28;20504;-61
2023/12/13 06:43:22;;;;;;;23.88;17.60;;;;;;;7.34;100.00;114241.84;5052809;28;20025;-61
2023/12/13 06:45:47;;;;;;;28.83;19.48;;;;;;;7.37;100.00;113552.38;5051168;28;20041;-62
2023/12/13 06:48:13;;;;;;;27.45;19.13;;;;;;;7.36;100.00;113551.47;5053174;28;20434;-62
2023/12/13 06:50:38;;;;;;;29.40;20.30;;;;;;;7.34;100.00;112852.81;5051256;28;20553;-70
2023/12/13 06:53:04;;;;;;;25.95;18.77;;;;;;;7.34;100.00;112851.88;5052567;28;20040;-61
2023/12/13 06:55:29;;;;;;;36.10;20.95;;;;;;;7.37;100.00;112509.97;5051412;28;20041;-61
2023/12/13 06:57:55;;;;;;;23.38;18.65;;;;;;;7.37;100.00;112509.97;5052942;28;20020;-61
2023/12/13 07:00:21;;;;;;;30.75;20.25;;;;;;;7.37;100.00;112162.56;5050589;28;20041;-62
2023/12/13 07:02:47;;;;;;;30.80;19.40;;;;;;;7.41;100.00;112169.94;5052929;28;20063;-62
2023/12/13 07:05:13;;;;;;;30.95;17.25;;;;;;;7.41;100.00;112169.94;5051128;28;20095;-62
2023/12/13 07:07:38;;;;;;;34.67;18.67;;;;;;;7.42;100.00;112171.75;5051943;28;20033;-63
2023/12/13 07:10:04;;;;;;;36.70;19.08;;;;;;;7.47;100.00;111486.09;5051091;28;20040;-62
2023/12/13 07:12:29;;;;;;;25.10;17.27;;;;;;;7.47;100.00;111139.63;5052354;28;20392;-63
2023/12/13 07:14:58;;;;;;;23.08;18.90;;;;;;;7.47;100.00;111138.72;5050617;28;20040;-59
2023/12/13 07:17:23;;;;;;;30.48;20.13;;;;;;;7.42;100.00;111130.53;5052425;28;20434;-59
2023/12/13 07:19:49;;;;;;;34.20;21.17;;;;;;;7.45;100.00;110787.75;5051033;28;20124;-59
2023/12/13 07:22:15;;;;;;;36.85;19.23;;;;;;;7.44;100.00;110438.63;5052029;28;20108;-59
2023/12/13 07:24:40;;;;;;;29.27;18.75;;;;;;;7.38;100.00;109734.25;5051020;28;20055;-59
2023/12/13 07:27:06;;;;;;;29.65;19.67;;;;;;;7.47;100.00;108708.78;5052447;28;20027;-59
2023/12/13 07:29:33;;;;;;;27.73;19.00;;;;;;;7.52;100.00;108022.50;5050193;28;20518;-59
2023/12/13 07:31:58;;;;;;;33.53;20.63;;;;;;;7.51;100.00;107673.63;5052023;28;20071;-59
2023/12/13 07:34:24;;;;;;;34.47;20.27;;;;;;;7.53;100.00;106983.00;5050444;28;20071;-59
2023/12/13 07:36:49;;;;;;;32.88;21.75;;;;;;;7.58;100.00;106644.69;5051591;28;20049;-59
2023/12/13 07:39:15;;;;;;;32.63;21.02;;;;;;;7.61;100.00;105955.84;5050069;28;20397;-59
2023/12/13 07:41:41;;;;;;;32.30;19.85;;;;;;;7.61;100.00;105608.88;5052256;28;20059;-59
2023/12/13 07:44:07;;;;;;;36.45;21.30;;;;;;;7.62;100.00;105610.59;5050164;28;20528;-58
2023/12/13 07:46:32;;;;;;;47.22;23.85;;;;;;;7.54;100.00;105596.81;5051820;28;20353;-59
2023/12/13 07:49:03;;;;;;;32.90;22.38;;;;;;;7.51;100.00;105938.53;5050402;28;20025;-58
2023/12/13 07:51:29;;;;;;;40.80;21.23;;;;;;;7.58;100.00;105255.91;5051322;28;20361;-59
2023/12/13 07:53:55;;;;;;;43.15;21.98;;;;;;;7.58;100.00;105255.91;5050625;28;20025;-58
2023/12/13 07:56:21;;;;;;;38.63;23.90;;;;;;;7.62;100.00;104569.81;5051315;28;20086;-59
2023/12/13 07:58:46;;;;;;;39.15;21.83;;;;;;;7.62;100.00;104222.06;5051415;28;20024;-59
2023/12/13 08:01:14;;;;;;;33.35;23.15;;;;;;;7.62;100.00;103876.09;5047553;28;20052;-59
2023/12/13 08:03:40;;;;;;;40.58;21.83;;;;;;;7.68;100.00;103190.91;5051243;28;20024;-58
2023/12/13 08:06:15;;;;;;;35.25;22.63;;;;;;;7.62;100.00;103182.50;5031025;28;20038;-59
2023/12/13 08:08:41;;;;;;;32.85;22.77;;;;;;;7.67;100.00;102842.44;5031042;28;20033;-58
2023/12/13 08:11:07;;;;;;;38.95;22.40;;;;;;;7.63;100.00;102489.84;5048277;28;20095;-59
2023/12/13 08:13:33;;;;;;;42.25;23.73;;;;;;;7.68;100.00;101803.94;5050842;28;20476;-59
2023/12/13 08:15:59;;;;;;;39.72;23.98;;;;;;;7.71;100.00;101116.41;5049597;28;20099;-59
2023/12/13 08:18:25;;;;;;;39.40;22.75;;;;;;;7.73;100.00;100079.06;5050684;28;20020;-59
2023/12/13 08:20:50;;;;;;;41.95;21.15;;;;;;;7.74;100.00;99387.63;5049329;28;20132;-59
2023/12/13 08:23:16;;;;;;;54.72;28.13;;;;;;;7.76;100.00;98698.69;5051160;28;20017;-59
2023/12/13 08:25:41;;;;;;;37.38;22.48;;;;;;;7.81;100.00;97666.59;5049406;28;20040;-59
2023/12/13 08:28:07;;;;;;;44.05;22.90;;;;;;;7.80;100.00;97318.63;5050775;28;20372;-59
2023/12/13 08:30:33;;;;;;;34.85;23.70;;;;;;;7.79;100.00;96970.69;5049530;28;20115;-59
2023/12/13 08:32:58;;;;;;;50.58;26.20;;;;;;;7.82;100.00;96282.03;5050955;28;20032;-59
2023/12/13 08:35:24;;;;;;;39.30;21.77;;;;;;;7.85;100.00;95594.97;5047792;28;20040;-59
2023/12/13 08:37:49;;;;;;;36.63;21.90;;;;;;;7.91;100.00;94911.00;5049362;28;20045;-59
2023/12/13 08:40:15;;;;;;;42.67;24.55;;;;;;;7.93;100.00;93876.28;5046910;28;20488;-59
2023/12/13 08:42:40;;;;;;;39.30;21.35;;;;;;;7.96;100.00;93187.09;5048914;28;20037;-59
2023/12/13 08:45:06;;;;;;;40.50;21.02;;;;;;;8.02;100.00;92503.97;5048008;28;20047;-59
2023/12/13 08:47:32;;;;;;;40.50;23.75;;;;;;;8.01;100.00;92156.41;5048969;28;20365;-59
2023/12/13 08:49:57;;;;;;;40.15;22.85;;;;;;;7.99;100.00;92154.16;5048455;28;20048;-59
2023/12/13 08:52:22;;;;;;;33.05;20.73;;;;;;;8.08;100.00;91475.56;5049926;28;20020;-59
2023/12/13 08:54:48;;;;;;;34.72;20.60;;;;;;;8.13;100.00;90790.22;5049416;28;20091;-59
2023/12/13 08:57:13;;;;;;;61.67;26.42;;;;;;;8.20;100.00;90108.53;5050270;28;20035;-59
2023/12/13 08:59:38;;;;;;;38.75;20.92;;;;;;;8.16;100.00;90448.63;5047701;28;20060;-59
2023/12/13 09:02:04;;;;;;;36.15;23.02;;;;;;;8.22;100.00;90111.47;5050566;28;20021;-59
2023/12/13 09:04:29;;;;;;;37.55;23.65;;;;;;;8.28;100.00;90118.75;5048804;28;20036;-59
2023/12/13 09:06:55;;;;;;;40.90;20.35;;;;;;;8.30;100.00;90121.69;5050652;28;20021;-59
2023/12/13 09:09:20;;;;;;;41.70;21.00;;;;;;;8.33;100.00;90126.06;5049264;28;20037;-59
2023/12/13 09:11:47;;;;;;;29.23;21.73;;;;;;;8.38;100.00;90133.38;5050790;28;20028;-59
2023/12/13 09:14:13;;;;;;;35.08;22.27;;;;;;;8.37;100.00;90478.00;5048822;28;20094;-59
2023/12/13 09:16:39;;;;;;;34.95;20.30;;;;;;;8.39;100.00;90481.69;5050264;28;20391;-59
2023/12/13 09:19:05;;;;;;;37.97;20.35;;;;;;;8.38;100.00;91171.72;5049325;28;20029;-59
2023/12/13 09:21:30;;;;;;;41.67;22.17;;;;;;;8.47;100.00;90838.16;5049936;28;20060;-59
2023/12/13 09:23:55;;;;;;;40.90;20.10;;;;;;;8.58;100.00;90161.94;5048915;28;20025;-59
2023/12/13 09:26:21;;;;;;;44.33;21.95;;;;;;;8.71;100.00;89142.31;5050194;28;20153;-59
2023/12/13 09:28:46;;;;;;;30.83;21.80;;;;;;;-146.58;100.00;69501.63;5050001;28;20511;-59
2023/12/13 09:31:12;;;;;;;41.40;19.30;;;;;;;-146.58;100.00;69501.63;5048781;28;20044;-59
2023/12/13 09:33:37;;;;;;;34.70;18.52;;;;;;;-146.58;100.00;69501.63;5049997;28;20025;-59
2023/12/13 09:36:03;;;;;;;34.08;20.40;;;;;;;8.71;100.00;89142.31;5048383;28;20051;-59
2023/12/13 09:38:30;;;;;;;31.23;18.67;;;;;;;9.02;100.00;91264.28;5050191;28;20025;-59
2023/12/13 09:40:55;;;;;;;40.47;19.88;;;;;;;8.99;100.00;92298.75;5048779;28;20045;-59
2023/12/13 09:43:23;;;;;;;39.70;20.33;;;;;;;9.00;100.00;93686.88;5049598;28;20503;-59
2023/12/13 09:45:51;;;;;;;37.97;18.25;;;;;;;9.04;100.00;95080.19;5048824;28;20459;-59
2023/12/13 09:48:21;;;;;;;30.75;17.63;;;;;;;9.04;100.00;97161.88;5049928;28;20035;-59
2023/12/13 09:50:53;;;;;;;27.77;16.45;;;;;;;9.02;100.00;99935.84;5048426;28;20511;-59
2023/12/13 09:53:21;;;;;;;33.75;18.38;;;;;;;8.98;100.00;103751.63;5050244;28;20025;-59
2023/12/13 09:55:47;;;;;;;24.88;16.80;;;;;;;8.97;100.00;106878.34;5045236;28;20137;-59
2023/12/13 09:58:13;;;;;;;25.67;16.20;;;;;;;8.95;100.00;110006.41;5048997;28;20058;-59
2023/12/13 10:00:38;;;;;;;28.10;18.52;;;;;;;8.93;100.00;112441.00;5047949;28;20087;-59
2023/12/13 10:03:05;;;;;;;27.25;15.68;;;;;;;9.03;100.00;114549.03;5049801;28;20488;-59
2023/12/13 10:05:32;;;;;;;29.55;16.98;;;;;;;8.98;100.00;117328.50;5051549;28;20048;-59
2023/12/13 10:08:01;;;;;;;27.88;16.27;;;;;;;8.97;100.00;120117.34;5053380;28;20021;-59
2023/12/13 10:10:34;;;;;;;33.95;19.00;;;;;;;8.97;100.00;122560.78;5051946;28;20072;-59
2023/12/13 10:13:06;;;;;;;30.40;17.38;;;;;;;8.97;100.00;124656.34;5053018;28;20391;-59
2023/12/13 10:15:31;;;;;;;25.98;17.80;;;;;;;8.96;100.00;127100.41;5052190;28;20037;-59
2023/12/13 10:17:58;;;;;;;27.60;18.50;;;;;;;8.94;100.00;129193.97;5053638;28;20035;-59
2023/12/13 10:20:24;;;;;;;33.08;18.13;;;;;;;8.95;100.00;130245.38;5051474;28;20045;-59
2023/12/13 10:22:50;;;;;;;29.60;18.30;;;;;;;8.97;100.00;130949.38;5052078;28;20043;-59
2023/12/13 10:25:21;;;;;;;32.95;18.02;;;;;;;8.98;100.00;132351.28;5051769;28;20053;-59
2023/12/13 10:27:47;;;;;;;29.60;16.90;;;;;;;8.94;100.00;134443.03;5052881;28;20021;-59
2023/12/13 10:30:12;;;;;;;36.38;19.02;;;;;;;8.91;100.00;135486.94;5051892;28;20037;-59
2023/12/13 10:32:38;;;;;;;33.35;16.80;;;;;;;8.97;100.00;135150.09;5053171;28;20032;-59
2023/12/13 10:35:04;;;;;;;26.88;16.40;;;;;;;9.02;100.00;133410.25;5051482;28;20045;-59
2023/12/13 10:37:33;;;;;;;31.42;17.25;;;;;;;9.05;100.00;132366.53;5052725;28;20084;-59
2023/12/13 10:39:59;;;;;;;27.38;17.73;;;;;;;9.10;100.00;130277.50;5051937;28;20064;-59
2023/12/13 10:42:25;;;;;;;26.25;19.08;;;;;;;9.15;100.00;128538.91;5052457;28;20120;-59
2023/12/13 10:44:51;;;;;;;26.33;17.67;;;;;;;9.26;100.00;126112.91;5051918;28;20045;-59
2023/12/13 10:47:25;;;;;;;29.77;18.52;;;;;;;9.32;100.00;123678.34;5052710;28;20052;-59
2023/12/13 10:49:55;;;;;;;24.70;15.05;;;;;;;9.43;100.00;121253.72;5051367;28;20033;-59
2023/12/13 10:52:23;;;;;;;31.48;16.67;;;;;;;9.49;100.00;119868.47;5052906;28;20055;-59
2023/12/13 10:54:50;;;;;;;38.13;16.27;;;;;;;9.50;100.00;120219.69;5051268;28;20048;-59
2023/12/13 10:57:16;;;;;;;21.92;14.70;;;;;;;9.53;100.00;120924.22;5052230;28;20028;-58
2023/12/13 10:59:43;;;;;;;29.50;15.75;;;;;;;9.45;100.00;123354.19;5051513;28;20045;-59